sensor_id;sensor_type;location;lat;lon;timestamp;pressure;altitude;pressure_sealevel;temperature;humidity
80103;BME280;69865;47.648;19.030;2024-02-28T00:00:00;100482.78;;;8.34;100.00
80103;BME280;69865;47.648;19.030;2024-02-28T00:00:32;100485.16;;;8.37;100.00
80103;BME280;69865;47.648;19.030;2024-02-28T00:01:04;100484.91;;;8.40;100.00
80103;BME280;69865;47.648;19.030;2024-02-28T00:01:37;100485.53;;;8.44;100.00
80103;BME280;69865;47.648;19.030;2024-02-28T00:02:16;100485.41;;;8.45;100.00
80103;BME280;69865;47.648;19.030;2024-02-28T00:02:51;100480.50;;;8.41;100.00
80103;BME280;69865;47.648;19.030;2024-02-28T00:03:25;100483.03;;;8.42;100.00
80103;BME280;69865;47.648;19.030;2024-02-28T00:03:57;100486.16;;;8.47;100.00
80103;BME280;69865;47.648;19.030;2024-02-28T00:04:31;100489.50;;;8.49;100.00
80103;BME280;69865;47.648;19.030;2024-02-28T00:05:10;100483.91;;;8.54;100.00
80103;BME280;69865;47.648;19.030;2024-02-28T00:05:48;100482.81;;;8.57;100.00
80103;BME280;69865;47.648;19.030;2024-02-28T00:06:22;100478.41;;;8.57;100.00
80103;BME280;69865;47.648;19.030;2024-02-28T00:06:54;100489.75;;;8.58;100.00
80103;BME280;69865;47.648;19.030;2024-02-28T00:07:31;100488.06;;;8.57;100.00
80103;BME280;69865;47.648;19.030;2024-02-28T00:08:08;100485.44;;;8.57;100.00
80103;BME280;69865;47.648;19.030;2024-02-28T00:08:46;100486.03;;;8.60;100.00
80103;BME280;69865;47.648;19.030;2024-02-28T00:09:18;100482.94;;;8.55;100.00
80103;BME280;69865;47.648;19.030;2024-02-28T00:09:55;100486.63;;;8.53;100.00
80103;BME280;69865;47.648;19.030;2024-02-28T00:10:27;100484.13;;;8.51;100.00
80103;BME280;69865;47.648;19.030;2024-02-28T00:11:02;100489.25;;;8.53;100.00
80103;BME280;69865;47.648;19.030;2024-02-28T00:11:51;100484.25;;;8.49;100.00
80103;BME280;69865;47.648;19.030;2024-02-28T00:12:22;100487.69;;;8.50;100.00
80103;BME280;69865;47.648;19.030;2024-02-28T00:12:58;100484.00;;;8.53;100.00
80103;BME280;69865;47.648;19.030;2024-02-28T00:13:31;100483.16;;;8.52;100.00
80103;BME280;69865;47.648;19.030;2024-02-28T00:14:07;100492.94;;;8.50;100.00
80103;BME280;69865;47.648;19.030;2024-02-28T00:14:39;100485.19;;;8.48;100.00
80103;BME280;69865;47.648;19.030;2024-02-28T00:15:13;100485.91;;;8.51;100.00
80103;BME280;69865;47.648;19.030;2024-02-28T00:15:48;100485.19;;;8.48;100.00
80103;BME280;69865;47.648;19.030;2024-02-28T00:16:25;100487.22;;;8.45;100.00
80103;BME280;69865;47.648;19.030;2024-02-28T00:17:01;100486.50;;;8.43;100.00
80103;BME280;69865;47.648;19.030;2024-02-28T00:17:33;100490.66;;;8.45;100.00
80103;BME280;69865;47.648;19.030;2024-02-28T00:18:07;100483.03;;;8.42;100.00
80103;BME280;69865;47.648;19.030;2024-02-28T00:18:48;100480.06;;;8.47;100.00
80103;BME280;69865;47.648;19.030;2024-02-28T00:19:20;100482.19;;;8.42;100.00
80103;BME280;69865;47.648;19.030;2024-02-28T00:19:52;100487.78;;;8.37;100.00
80103;BME280;69865;47.648;19.030;2024-02-28T00:20:35;100490.91;;;8.42;100.00
80103;BME280;69865;47.648;19.030;2024-02-28T00:21:11;100490.66;;;8.45;100.00
80103;BME280;69865;47.648;19.030;2024-02-28T00:21:44;100487.81;;;8.48;100.00
80103;BME280;69865;47.648;19.030;2024-02-28T00:22:17;100493.28;;;8.45;100.00
80103;BME280;69865;47.648;19.030;2024-02-28T00:22:54;100487.81;;;8.48;100.00
80103;BME280;69865;47.648;19.030;2024-02-28T00:23:26;100496.41;;;8.51;100.00
80103;BME280;69865;47.648;19.030;2024-02-28T00:24:01;100497.25;;;8.51;100.00
80103;BME280;69865;47.648;19.030;2024-02-28T00:24:36;100491.78;;;8.54;100.00
80103;BME280;69865;47.648;19.030;2024-02-28T00:25:08;100495.22;;;8.55;100.00
80103;BME280;69865;47.648;19.030;2024-02-28T00:25:40;100497.03;;;8.54;100.00
80103;BME280;69865;47.648;19.030;2024-02-28T00:26:13;100494.41;;;8.54;100.00
80103;BME280;69865;47.648;19.030;2024-02-28T00:26:45;100493.06;;;8.48;100.00
80103;BME280;69865;47.648;19.030;2024-02-28T00:27:23;100489.84;;;8.45;100.00
80103;BME280;69865;47.648;19.030;2024-02-28T00:27:55;100491.28;;;8.49;100.00
80103;BME280;69865;47.648;19.030;2024-02-28T00:28:27;100491.41;;;8.47;100.00
80103;BME280;69865;47.648;19.030;2024-02-28T00:29:06;100494.03;;;8.47;100.00
80103;BME280;69865;47.648;19.030;2024-02-28T00:29:40;100495.47;;;8.52;100.00
80103;BME280;69865;47.648;19.030;2024-02-28T00:30:16;100491.03;;;8.52;100.00
80103;BME280;69865;47.648;19.030;2024-02-28T00:30:51;100491.53;;;8.57;100.00
80103;BME280;69865;47.648;19.030;2024-02-28T00:31:23;100492.97;;;8.61;99.99
80103;BME280;69865;47.648;19.030;2024-02-28T00:31:55;100497.03;;;8.65;100.00
80103;BME280;69865;47.648;19.030;2024-02-28T00:32:27;100489.06;;;8.67;100.00
80103;BME280;69865;47.648;19.030;2024-02-28T00:33:03;100493.38;;;8.68;100.00
80103;BME280;69865;47.648;19.030;2024-02-28T00:33:38;100495.16;;;8.67;100.00
80103;BME280;69865;47.648;19.030;2024-02-28T00:34:29;100499.66;;;8.65;100.00
80103;BME280;69865;47.648;19.030;2024-02-28T00:35:01;100494.75;;;8.61;100.00
80103;BME280;69865;47.648;19.030;2024-02-28T00:35:33;100492.25;;;8.59;100.00
80103;BME280;69865;47.648;19.030;2024-02-28T00:36:06;100496.34;;;8.63;100.00
80103;BME280;69865;47.648;19.030;2024-02-28T00:36:40;100495.50;;;8.63;100.00
80103;BME280;69865;47.648;19.030;2024-02-28T00:37:26;100496.09;;;8.66;100.00
80103;BME280;69865;47.648;19.030;2024-02-28T00:38:00;100493.38;;;8.68;99.92
80103;BME280;69865;47.648;19.030;2024-02-28T00:38:38;100493.38;;;8.68;99.73
80103;BME280;69865;47.648;19.030;2024-02-28T00:39:12;100494.91;;;8.70;100.00
80103;BME280;69865;47.648;19.030;2024-02-28T00:39:49;100494.91;;;8.70;100.00
80103;BME280;69865;47.648;19.030;2024-02-28T00:40:22;100498.72;;;8.66;99.46
80103;BME280;69865;47.648;19.030;2024-02-28T00:40:54;100490.25;;;8.63;100.00
80103;BME280;69865;47.648;19.030;2024-02-28T00:41:28;100489.75;;;8.58;100.00
80103;BME280;69865;47.648;19.030;2024-02-28T00:42:03;100492.72;;;8.64;100.00
80103;BME280;69865;47.648;19.030;2024-02-28T00:42:38;100495.34;;;8.64;100.00
80103;BME280;69865;47.648;19.030;2024-02-28T00:43:15;100484.75;;;8.66;100.00
80103;BME280;69865;47.648;19.030;2024-02-28T00:43:47;100495.84;;;8.69;100.00
80103;BME280;69865;47.648;19.030;2024-02-28T00:44:19;100493.38;;;8.68;100.00
80103;BME280;69865;47.648;19.030;2024-02-28T00:44:55;100485.84;;;8.63;100.00
80103;BME280;69865;47.648;19.030;2024-02-28T00:45:29;100492.38;;;8.58;100.00
80103;BME280;69865;47.648;19.030;2024-02-28T00:46:06;100489.84;;;8.56;100.00
80103;BME280;69865;47.648;19.030;2024-02-28T00:46:39;100495.09;;;8.56;100.00
80103;BME280;69865;47.648;19.030;2024-02-28T00:47:15;100494.06;;;8.59;100.00
80103;BME280;69865;47.648;19.030;2024-02-28T00:47:49;100499.16;;;8.60;100.00
80103;BME280;69865;47.648;19.030;2024-02-28T00:48:24;100497.03;;;8.65;99.99
80103;BME280;69865;47.648;19.030;2024-02-28T00:49:02;100493.97;;;8.71;100.00
80103;BME280;69865;47.648;19.030;2024-02-28T00:49:34;100495.59;;;8.72;100.00
80103;BME280;69865;47.648;19.030;2024-02-28T00:50:07;100495.75;;;8.71;99.39
80103;BME280;69865;47.648;19.030;2024-02-28T00:50:41;100494.06;;;8.70;99.43
80103;BME280;69865;47.648;19.030;2024-02-28T00:51:16;100497.78;;;8.67;99.53
80103;BME280;69865;47.648;19.030;2024-02-28T00:51:57;100495.25;;;8.66;100.00
80103;BME280;69865;47.648;19.030;2024-02-28T00:52:36;100491.78;;;8.65;99.40
80103;BME280;69865;47.648;19.030;2024-02-28T00:53:11;100490.72;;;8.68;100.00
80103;BME280;69865;47.648;19.030;2024-02-28T00:53:46;100491.44;;;8.70;99.22
80103;BME280;69865;47.648;19.030;2024-02-28T00:54:20;100489.56;;;8.72;99.89
80103;BME280;69865;47.648;19.030;2024-02-28T00:54:52;100492.97;;;8.72;99.62
80103;BME280;69865;47.648;19.030;2024-02-28T00:55:24;100494.56;;;8.75;100.00
80103;BME280;69865;47.648;19.030;2024-02-28T00:55:57;100494.41;;;8.76;99.79
80103;BME280;69865;47.648;19.030;2024-02-28T00:56:29;100495.25;;;8.77;99.17
80103;BME280;69865;47.648;19.030;2024-02-28T00:57:01;100493.47;;;8.77;100.00
80103;BME280;69865;47.648;19.030;2024-02-28T00:57:33;100493.81;;;8.73;99.74
80103;BME280;69865;47.648;19.030;2024-02-28T00:58:05;100495.59;;;8.72;99.21
80103;BME280;69865;47.648;19.030;2024-02-28T00:58:37;100492.03;;;8.73;99.58
80103;BME280;69865;47.648;19.030;2024-02-28T00:59:09;100486.78;;;8.73;99.11
80103;BME280;69865;47.648;19.030;2024-02-28T00:59:41;100494.56;;;8.75;98.92
80103;BME280;69865;47.648;19.030;2024-02-28T01:00:15;100489.16;;;8.76;98.99
80103;BME280;69865;47.648;19.030;2024-02-28T01:00:48;100485.50;;;8.79;99.13
80103;BME280;69865;47.648;19.030;2024-02-28T01:01:20;100494.91;;;8.81;99.53
80103;BME280;69865;47.648;19.030;2024-02-28T01:01:52;100488.13;;;8.79;98.89
80103;BME280;69865;47.648;19.030;2024-02-28T01:02:24;100491.59;;;8.79;99.20
80103;BME280;69865;47.648;19.030;2024-02-28T01:02:56;100492.53;;;8.78;99.22
80103;BME280;69865;47.648;19.030;2024-02-28T01:03:28;100486.44;;;8.78;99.81
80103;BME280;69865;47.648;19.030;2024-02-28T01:04:00;100487.28;;;8.78;99.09
80103;BME280;69865;47.648;19.030;2024-02-28T01:04:32;100498.63;;;8.79;99.81
80103;BME280;69865;47.648;19.030;2024-02-28T01:05:05;100494.22;;;8.79;99.54
80103;BME280;69865;47.648;19.030;2024-02-28T01:05:37;100496.00;;;8.79;99.39
80103;BME280;69865;47.648;19.030;2024-02-28T01:06:09;100495.16;;;8.78;99.75
80103;BME280;69865;47.648;19.030;2024-02-28T01:06:41;100496.84;;;8.79;99.37
80103;BME280;69865;47.648;19.030;2024-02-28T01:07:13;100494.22;;;8.79;99.65
80103;BME280;69865;47.648;19.030;2024-02-28T01:07:45;100492.53;;;8.78;99.38
80103;BME280;69865;47.648;19.030;2024-02-28T01:08:18;100494.41;;;8.76;99.17
80103;BME280;69865;47.648;19.030;2024-02-28T01:08:50;100494.31;;;8.78;99.38
80103;BME280;69865;47.648;19.030;2024-02-28T01:09:22;100494.56;;;8.75;99.71
80103;BME280;69865;47.648;19.030;2024-02-28T01:09:54;100489.41;;;8.73;100.00
80103;BME280;69865;47.648;19.030;2024-02-28T01:10:26;100491.34;;;8.71;99.13
80103;BME280;69865;47.648;19.030;2024-02-28T01:10:58;100487.13;;;8.69;99.94
80103;BME280;69865;47.648;19.030;2024-02-28T01:11:31;100489.75;;;8.69;100.00
80103;BME280;69865;47.648;19.030;2024-02-28T01:12:03;100495.25;;;8.66;100.00
80103;BME280;69865;47.648;19.030;2024-02-28T01:12:35;100484.84;;;8.64;99.47
80103;BME280;69865;47.648;19.030;2024-02-28T01:13:07;100496.09;;;8.66;99.55
80103;BME280;69865;47.648;19.030;2024-02-28T01:13:39;100488.31;;;8.65;99.57
80103;BME280;69865;47.648;19.030;2024-02-28T01:14:11;100491.34;;;8.71;100.00
80103;BME280;69865;47.648;19.030;2024-02-28T01:14:43;100495.75;;;8.71;100.00
80103;BME280;69865;47.648;19.030;2024-02-28T01:15:17;100494.81;;;8.72;100.00
80103;BME280;69865;47.648;19.030;2024-02-28T01:15:49;100495.59;;;8.72;99.78
80103;BME280;69865;47.648;19.030;2024-02-28T01:16:21;100504.31;;;8.73;100.00
80103;BME280;69865;47.648;19.030;2024-02-28T01:16:53;100498.22;;;8.72;100.00
80103;BME280;69865;47.648;19.030;2024-02-28T01:17:25;100505.06;;;8.75;99.95
80103;BME280;69865;47.648;19.030;2024-02-28T01:17:57;100498.13;;;8.74;98.99
80103;BME280;69865;47.648;19.030;2024-02-28T01:18:29;100498.03;;;8.75;99.48
80103;BME280;69865;47.648;19.030;2024-02-28T01:19:02;100498.03;;;8.75;99.97
80103;BME280;69865;47.648;19.030;2024-02-28T01:19:34;100502.53;;;8.73;99.99
80103;BME280;69865;47.648;19.030;2024-02-28T01:20:07;100497.44;;;8.72;100.00
80103;BME280;69865;47.648;19.030;2024-02-28T01:20:39;100506.84;;;8.74;100.00
80103;BME280;69865;47.648;19.030;2024-02-28T01:21:11;100499.91;;;8.73;99.32
80103;BME280;69865;47.648;19.030;2024-02-28T01:21:43;100505.06;;;8.75;99.72
80103;BME280;69865;47.648;19.030;2024-02-28T01:22:16;100504.47;;;8.71;99.70
80103;BME280;69865;47.648;19.030;2024-02-28T01:22:48;100499.31;;;8.70;100.00
80103;BME280;69865;47.648;19.030;2024-02-28T01:23:20;100500.50;;;8.66;100.00
80103;BME280;69865;47.648;19.030;2024-02-28T01:23:52;100501.44;;;8.65;100.00
80103;BME280;69865;47.648;19.030;2024-02-28T01:24:24;100505.75;;;8.66;100.00
80103;BME280;69865;47.648;19.030;2024-02-28T01:24:56;100504.91;;;8.65;100.00
80103;BME280;69865;47.648;19.030;2024-02-28T01:25:28;100505.75;;;8.66;100.00
80103;BME280;69865;47.648;19.030;2024-02-28T01:26:00;100505.06;;;8.64;100.00
80103;BME280;69865;47.648;19.030;2024-02-28T01:26:32;100503.22;;;8.64;100.00
80103;BME280;69865;47.648;19.030;2024-02-28T01:27:04;100503.59;;;8.60;100.00
80103;BME280;69865;47.648;19.030;2024-02-28T01:27:36;100505.41;;;8.59;100.00
80103;BME280;69865;47.648;19.030;2024-02-28T01:28:09;100507.03;;;8.60;100.00
80103;BME280;69865;47.648;19.030;2024-02-28T01:28:41;100507.19;;;8.59;100.00
80103;BME280;69865;47.648;19.030;2024-02-28T01:29:13;100508.84;;;8.60;100.00
80103;BME280;69865;47.648;19.030;2024-02-28T01:29:44;100512.28;;;8.60;100.00
80103;BME280;69865;47.648;19.030;2024-02-28T01:30:18;100509.81;;;8.59;100.00
80103;BME280;69865;47.648;19.030;2024-02-28T01:30:50;100509.91;;;8.57;100.00
80103;BME280;69865;47.648;19.030;2024-02-28T01:31:22;100507.19;;;8.59;100.00
80103;BME280;69865;47.648;19.030;2024-02-28T01:31:54;100502.78;;;8.59;100.00
80103;BME280;69865;47.648;19.030;2024-02-28T01:32:27;100507.41;;;8.56;100.00
80103;BME280;69865;47.648;19.030;2024-02-28T01:33:00;100504.78;;;8.56;100.00
80103;BME280;69865;47.648;19.030;2024-02-28T01:33:32;100514.31;;;8.57;100.00
80103;BME280;69865;47.648;19.030;2024-02-28T01:34:04;100510.03;;;8.56;100.00
80103;BME280;69865;47.648;19.030;2024-02-28T01:34:36;100516.09;;;8.56;100.00
80103;BME280;69865;47.648;19.030;2024-02-28T01:35:09;100505.59;;;8.56;100.00
80103;BME280;69865;47.648;19.030;2024-02-28T01:35:41;100510.75;;;8.58;100.00
80103;BME280;69865;47.648;19.030;2024-02-28T01:36:13;100506.44;;;8.57;100.00
80103;BME280;69865;47.648;19.030;2024-02-28T01:36:45;100510.75;;;8.58;100.00
80103;BME280;69865;47.648;19.030;2024-02-28T01:37:17;100508.22;;;8.56;100.00
80103;BME280;69865;47.648;19.030;2024-02-28T01:37:51;100510.25;;;8.53;100.00
80103;BME280;69865;47.648;19.030;2024-02-28T01:38:23;100508.47;;;8.53;100.00
80103;BME280;69865;47.648;19.030;2024-02-28T01:38:55;100508.47;;;8.53;100.00
80103;BME280;69865;47.648;19.030;2024-02-28T01:39:27;100507.63;;;8.53;100.00
80103;BME280;69865;47.648;19.030;2024-02-28T01:39:59;100510.16;;;8.54;100.00
80103;BME280;69865;47.648;19.030;2024-02-28T01:40:32;100508.47;;;8.53;100.00
80103;BME280;69865;47.648;19.030;2024-02-28T01:41:04;100516.34;;;8.53;100.00
80103;BME280;69865;47.648;19.030;2024-02-28T01:41:36;100509.53;;;8.51;100.00
80103;BME280;69865;47.648;19.030;2024-02-28T01:42:08;100506.91;;;8.51;100.00
80103;BME280;69865;47.648;19.030;2024-02-28T01:42:40;100514.06;;;8.48;100.00
80103;BME280;69865;47.648;19.030;2024-02-28T01:43:12;100513.84;;;8.52;100.00
80103;BME280;69865;47.648;19.030;2024-02-28T01:43:45;100515.63;;;8.51;100.00
80103;BME280;69865;47.648;19.030;2024-02-28T01:44:17;100514.78;;;8.51;100.00
80103;BME280;69865;47.648;19.030;2024-02-28T01:44:49;100514.91;;;8.49;100.00
80103;BME280;69865;47.648;19.030;2024-02-28T01:45:23;100513.22;;;8.48;100.00
80103;BME280;69865;47.648;19.030;2024-02-28T01:45:56;100513.22;;;8.48;100.00
80103;BME280;69865;47.648;19.030;2024-02-28T01:46:29;100518.69;;;8.45;100.00
80103;BME280;69865;47.648;19.030;2024-02-28T01:47:01;100513.44;;;8.45;100.00
80103;BME280;69865;47.648;19.030;2024-02-28T01:47:33;100511.66;;;8.45;100.00
80103;BME280;69865;47.648;19.030;2024-02-28T01:48:06;100512.50;;;8.46;100.00
80103;BME280;69865;47.648;19.030;2024-02-28T01:48:41;100507.38;;;8.44;100.00
80103;BME280;69865;47.648;19.030;2024-02-28T01:49:13;100518.59;;;8.46;100.00
80103;BME280;69865;47.648;19.030;2024-02-28T01:49:47;100516.41;;;8.40;100.00
80103;BME280;69865;47.648;19.030;2024-02-28T01:50:19;100512.16;;;8.39;100.00
80103;BME280;69865;47.648;19.030;2024-02-28T01:50:51;100514.88;;;8.38;100.00
80103;BME280;69865;47.648;19.030;2024-02-28T01:51:25;100523.59;;;8.38;100.00
80103;BME280;69865;47.648;19.030;2024-02-28T01:51:57;100517.38;;;8.39;100.00
80103;BME280;69865;47.648;19.030;2024-02-28T01:52:29;100517.38;;;8.39;100.00
80103;BME280;69865;47.648;19.030;2024-02-28T01:53:02;100516.31;;;8.42;100.00
80103;BME280;69865;47.648;19.030;2024-02-28T01:53:34;100516.06;;;8.45;100.00
80103;BME280;69865;47.648;19.030;2024-02-28T01:54:06;100517.84;;;8.44;100.00
80103;BME280;69865;47.648;19.030;2024-02-28T01:54:38;100511.78;;;8.44;100.00
80103;BME280;69865;47.648;19.030;2024-02-28T01:55:17;100513.59;;;8.43;100.00
80103;BME280;69865;47.648;19.030;2024-02-28T01:55:55;100514.19;;;8.47;100.00
80103;BME280;69865;47.648;19.030;2024-02-28T01:56:33;100505.91;;;8.40;100.00
80103;BME280;69865;47.648;19.030;2024-02-28T01:57:09;100508.91;;;8.36;100.00
80103;BME280;69865;47.648;19.030;2024-02-28T01:57:54;100508.44;;;8.42;100.00
80103;BME280;69865;47.648;19.030;2024-02-28T01:58:29;100512.75;;;8.43;100.00
80103;BME280;69865;47.648;19.030;2024-02-28T01:59:02;100512.00;;;8.41;100.00
80103;BME280;69865;47.648;19.030;2024-02-28T01:59:37;100511.16;;;8.40;100.00
80103;BME280;69865;47.648;19.030;2024-02-28T02:00:24;100512.16;;;8.39;100.00
80103;BME280;69865;47.648;19.030;2024-02-28T02:01:01;100511.16;;;8.40;100.00
80103;BME280;69865;47.648;19.030;2024-02-28T02:01:43;100509.38;;;8.41;100.00
80103;BME280;69865;47.648;19.030;2024-02-28T02:03:05;100506.28;;;8.36;100.00
80103;BME280;69865;47.648;19.030;2024-02-28T02:03:42;100508.06;;;8.35;100.00
80103;BME280;69865;47.648;19.030;2024-02-28T02:04:18;100504.59;;;8.35;100.00
80103;BME280;69865;47.648;19.030;2024-02-28T02:04:52;100504.47;;;8.36;100.00
80103;BME280;69865;47.648;19.030;2024-02-28T02:05:35;100511.53;;;8.36;100.00
80103;BME280;69865;47.648;19.030;2024-02-28T02:06:13;100504.28;;;8.39;100.00
80103;BME280;69865;47.648;19.030;2024-02-28T02:06:48;100510.47;;;8.38;100.00
80103;BME280;69865;47.648;19.030;2024-02-28T02:07:41;100512.97;;;8.40;100.00
80103;BME280;69865;47.648;19.030;2024-02-28T02:08:16;100512.84;;;8.41;100.00
80103;BME280;69865;47.648;19.030;2024-02-28T02:08:48;100511.16;;;8.40;100.00
80103;BME280;69865;47.648;19.030;2024-02-28T02:09:25;100510.34;;;8.40;100.00
80103;BME280;69865;47.648;19.030;2024-02-28T02:10:04;100507.59;;;8.41;100.00
80103;BME280;69865;47.648;19.030;2024-02-28T02:10:45;100507.72;;;8.40;100.00
80103;BME280;69865;47.648;19.030;2024-02-28T02:11:27;100509.53;;;8.39;100.00
80103;BME280;69865;47.648;19.030;2024-02-28T02:12:03;100511.31;;;8.39;100.00
80103;BME280;69865;47.648;19.030;2024-02-28T02:12:37;100513.09;;;8.38;100.00
80103;BME280;69865;47.648;19.030;2024-02-28T02:13:15;100506.91;;;8.39;100.00
80103;BME280;69865;47.648;19.030;2024-02-28T02:13:53;100522.75;;;8.38;100.00
80103;BME280;69865;47.648;19.030;2024-02-28T02:14:49;100522.84;;;8.36;100.00
80103;BME280;69865;47.648;19.030;2024-02-28T02:15:27;100521.19;;;8.35;100.00
80103;BME280;69865;47.648;19.030;2024-02-28T02:16:04;100525.59;;;8.35;100.00
80103;BME280;69865;47.648;19.030;2024-02-28T02:16:41;100522.97;;;8.35;100.00
80103;BME280;69865;47.648;19.030;2024-02-28T02:17:17;100527.38;;;8.34;100.00
80103;BME280;69865;47.648;19.030;2024-02-28T02:18:12;100529.06;;;8.35;100.00
80103;BME280;69865;47.648;19.030;2024-02-28T02:19:12;100519.50;;;8.34;100.00
80103;BME280;69865;47.648;19.030;2024-02-28T02:19:47;100526.53;;;8.34;100.00
80103;BME280;69865;47.648;19.030;2024-02-28T02:20:22;100525.09;;;8.30;100.00
80103;BME280;69865;47.648;19.030;2024-02-28T02:21:02;100537.13;;;8.32;100.00
80103;BME280;69865;47.648;19.030;2024-02-28T02:21:43;100532.13;;;8.29;100.00
80103;BME280;69865;47.648;19.030;2024-02-28T02:22:27;100526.97;;;8.28;100.00
80103;BME280;69865;47.648;19.030;2024-02-28T02:23:08;100535.78;;;8.27;100.00
80103;BME280;69865;47.648;19.030;2024-02-28T02:23:47;100530.66;;;8.25;100.00
80103;BME280;69865;47.648;19.030;2024-02-28T02:24:22;100531.50;;;8.26;100.00
80103;BME280;69865;47.648;19.030;2024-02-28T02:25:07;100532.56;;;8.23;100.00
80103;BME280;69865;47.648;19.030;2024-02-28T02:25:56;100528.34;;;8.21;100.00
80103;BME280;69865;47.648;19.030;2024-02-28T02:26:32;100528.34;;;8.21;100.00
80103;BME280;69865;47.648;19.030;2024-02-28T02:27:23;100531.22;;;8.18;100.00
80103;BME280;69865;47.648;19.030;2024-02-28T02:28:07;100537.53;;;8.15;100.00
80103;BME280;69865;47.648;19.030;2024-02-28T02:28:59;100529.75;;;8.14;100.00
80103;BME280;69865;47.648;19.030;2024-02-28T02:29:33;100532.50;;;8.12;100.00
80103;BME280;69865;47.648;19.030;2024-02-28T02:30:14;100528.44;;;8.08;100.00
80103;BME280;69865;47.648;19.030;2024-02-28T02:30:48;100526.75;;;8.07;100.00
80103;BME280;69865;47.648;19.030;2024-02-28T02:31:29;100532.00;;;8.07;100.00
80103;BME280;69865;47.648;19.030;2024-02-28T02:32:17;100528.78;;;8.03;100.00
80103;BME280;69865;47.648;19.030;2024-02-28T02:32:52;100527.66;;;7.95;100.00
80103;BME280;69865;47.648;19.030;2024-02-28T02:33:29;100530.28;;;7.95;100.00
80103;BME280;69865;47.648;19.030;2024-02-28T02:34:06;100526.81;;;7.94;100.00
80103;BME280;69865;47.648;19.030;2024-02-28T02:34:44;100535.28;;;7.98;100.00
80103;BME280;69865;47.648;19.030;2024-02-28T02:35:23;100531.59;;;8.00;100.00
80103;BME280;69865;47.648;19.030;2024-02-28T02:36:03;100534.13;;;8.02;100.00
80103;BME280;69865;47.648;19.030;2024-02-28T02:36:47;100541.91;;;8.03;100.00
80103;BME280;69865;47.648;19.030;2024-02-28T02:37:32;100543.53;;;8.04;100.00
80103;BME280;69865;47.648;19.030;2024-02-28T02:38:11;100547.84;;;8.06;100.00
80103;BME280;69865;47.648;19.030;2024-02-28T02:38:46;100548.06;;;8.02;100.00
80103;BME280;69865;47.648;19.030;2024-02-28T02:39:24;100544.63;;;8.02;100.00
80103;BME280;69865;47.648;19.030;2024-02-28T02:40:15;100544.72;;;8.00;100.00
80103;BME280;69865;47.648;19.030;2024-02-28T02:40:51;100545.69;;;7.99;100.00
80103;BME280;69865;47.648;19.030;2024-02-28T02:41:32;100543.06;;;7.99;100.00
80103;BME280;69865;47.648;19.030;2024-02-28T02:42:12;100544.84;;;7.99;100.00
80103;BME280;69865;47.648;19.030;2024-02-28T02:42:49;100546.72;;;7.97;100.00
80103;BME280;69865;47.648;19.030;2024-02-28T02:43:26;100553.03;;;7.94;100.00
80103;BME280;69865;47.648;19.030;2024-02-28T02:44:02;100557.34;;;7.95;100.00
80103;BME280;69865;47.648;19.030;2024-02-28T02:44:39;100542.56;;;7.94;100.00
80103;BME280;69865;47.648;19.030;2024-02-28T02:45:16;100547.69;;;7.96;100.00
80103;BME280;69865;47.648;19.030;2024-02-28T02:45:50;100543.16;;;7.98;100.00
80103;BME280;69865;47.648;19.030;2024-02-28T02:46:27;100545.78;;;7.98;100.00
80103;BME280;69865;47.648;19.030;2024-02-28T02:47:11;100543.25;;;7.96;100.00
80103;BME280;69865;47.648;19.030;2024-02-28T02:47:51;100538.00;;;7.96;100.00
80103;BME280;69865;47.648;19.030;2024-02-28T02:48:32;100539.84;;;7.96;100.00
80103;BME280;69865;47.648;19.030;2024-02-28T02:49:15;100546.00;;;7.95;100.00
80103;BME280;69865;47.648;19.030;2024-02-28T02:49:51;100550.41;;;7.94;100.00
80103;BME280;69865;47.648;19.030;2024-02-28T02:50:23;100541.63;;;7.95;100.00
80103;BME280;69865;47.648;19.030;2024-02-28T02:50:58;100541.00;;;7.92;100.00
80103;BME280;69865;47.648;19.030;2024-02-28T02:51:37;100540.03;;;7.93;100.00
80103;BME280;69865;47.648;19.030;2024-02-28T02:52:18;100545.28;;;7.93;100.00
80103;BME280;69865;47.648;19.030;2024-02-28T02:52:59;100554.09;;;7.92;100.00
80103;BME280;69865;47.648;19.030;2024-02-28T02:53:38;100550.53;;;7.93;100.00
80103;BME280;69865;47.648;19.030;2024-02-28T02:54:20;100554.91;;;7.92;100.00
80103;BME280;69865;47.648;19.030;2024-02-28T02:54:52;100554.09;;;7.92;100.00
80103;BME280;69865;47.648;19.030;2024-02-28T02:55:26;100547.19;;;7.91;100.00
80103;BME280;69865;47.648;19.030;2024-02-28T02:56:03;100557.53;;;7.92;100.00
80103;BME280;69865;47.648;19.030;2024-02-28T02:56:37;100554.72;;;7.95;100.00
80103;BME280;69865;47.648;19.030;2024-02-28T02:57:14;100550.31;;;7.96;100.00
80103;BME280;69865;47.648;19.030;2024-02-28T02:57:52;100547.56;;;7.97;100.00
80103;BME280;69865;47.648;19.030;2024-02-28T02:58:32;100553.56;;;7.99;100.00
80103;BME280;69865;47.648;19.030;2024-02-28T02:59:10;100557.72;;;8.02;100.00
80103;BME280;69865;47.648;19.030;2024-02-28T02:59:49;100552.47;;;8.02;100.00
80103;BME280;69865;47.648;19.030;2024-02-28T03:00:32;100548.31;;;7.99;100.00
80103;BME280;69865;47.648;19.030;2024-02-28T03:01:10;100552.72;;;7.99;100.00
80103;BME280;69865;47.648;19.030;2024-02-28T03:01:45;100551.66;;;8.01;100.00
80103;BME280;69865;47.648;19.030;2024-02-28T03:02:23;100552.59;;;8.00;100.00
80103;BME280;69865;47.648;19.030;2024-02-28T03:03:02;100548.31;;;7.99;100.00
80103;BME280;69865;47.648;19.030;2024-02-28T03:03:48;100558.91;;;7.98;100.00